sensor_id;sensor_type;location;lat;lon;timestamp;P1;durP1;ratioP1;P2;durP2;ratioP2
809;SDS011;387;48.772;9.186;2023-05-10T00:00:11;2.37;;;1.50;;
809;SDS011;387;48.772;9.186;2023-05-10T00:02:37;2.23;;;1.57;;
809;SDS011;387;48.772;9.186;2023-05-10T00:05:03;3.40;;;1.63;;
809;SDS011;387;48.772;9.186;2023-05-10T00:07:30;4.47;;;2.30;;
809;SDS011;387;48.772;9.186;2023-05-10T00:09:55;1.80;;;1.50;;
809;SDS011;387;48.772;9.186;2023-05-10T00:12:21;1.60;;;1.20;;
809;SDS011;387;48.772;9.186;2023-05-10T00:14:47;2.50;;;1.10;;
809;SDS011;387;48.772;9.186;2023-05-10T00:17:12;2.00;;;1.47;;
809;SDS011;387;48.772;9.186;2023-05-10T00:19:38;1.47;;;1.00;;
809;SDS011;387;48.772;9.186;2023-05-10T00:22:04;1.10;;;0.97;;
809;SDS011;387;48.772;9.186;2023-05-10T00:24:29;2.07;;;1.00;;
809;SDS011;387;48.772;9.186;2023-05-10T00:26:55;1.30;;;0.90;;
809;SDS011;387;48.772;9.186;2023-05-10T00:29:20;2.03;;;0.77;;
809;SDS011;387;48.772;9.186;2023-05-10T00:31:46;2.37;;;0.83;;
809;SDS011;387;48.772;9.186;2023-05-10T00:34:12;0.90;;;0.80;;
809;SDS011;387;48.772;9.186;2023-05-10T00:36:37;1.70;;;0.90;;
809;SDS011;387;48.772;9.186;2023-05-10T00:39:03;1.03;;;0.90;;
809;SDS011;387;48.772;9.186;2023-05-10T00:41:29;1.70;;;1.00;;
809;SDS011;387;48.772;9.186;2023-05-10T00:43:57;0.93;;;0.70;;
809;SDS011;387;48.772;9.186;2023-05-10T00:46:23;1.10;;;0.80;;
809;SDS011;387;48.772;9.186;2023-05-10T00:48:49;1.53;;;0.80;;
809;SDS011;387;48.772;9.186;2023-05-10T00:51:15;1.83;;;0.70;;
809;SDS011;387;48.772;9.186;2023-05-10T00:53:41;0.80;;;0.60;;
809;SDS011;387;48.772;9.186;2023-05-10T00:56:07;2.07;;;0.73;;
809;SDS011;387;48.772;9.186;2023-05-10T00:58:33;1.20;;;0.80;;
809;SDS011;387;48.772;9.186;2023-05-10T01:00:59;0.83;;;0.60;;
809;SDS011;387;48.772;9.186;2023-05-10T01:03:25;0.90;;;0.70;;
809;SDS011;387;48.772;9.186;2023-05-10T01:05:51;2.30;;;0.60;;
809;SDS011;387;48.772;9.186;2023-05-10T01:08:17;1.20;;;0.80;;
809;SDS011;387;48.772;9.186;2023-05-10T01:10:43;1.70;;;0.60;;
809;SDS011;387;48.772;9.186;2023-05-10T01:13:09;1.30;;;0.67;;
809;SDS011;387;48.772;9.186;2023-05-10T01:15:35;1.20;;;0.67;;
809;SDS011;387;48.772;9.186;2023-05-10T01:18:01;1.87;;;0.70;;
809;SDS011;387;48.772;9.186;2023-05-10T01:20:28;0.80;;;0.60;;
809;SDS011;387;48.772;9.186;2023-05-10T01:34:16;1.00;;;0.57;;
809;SDS011;387;48.772;9.186;2023-05-10T01:36:51;1.00;;;0.70;;
809;SDS011;387;48.772;9.186;2023-05-10T01:39:43;1.00;;;0.90;;
809;SDS011;387;48.772;9.186;2023-05-10T01:42:11;1.27;;;0.90;;
809;SDS011;387;48.772;9.186;2023-05-10T01:44:43;5.80;;;1.10;;
809;SDS011;387;48.772;9.186;2023-05-10T01:47:28;1.10;;;0.90;;
809;SDS011;387;48.772;9.186;2023-05-10T01:50:04;1.30;;;0.73;;
809;SDS011;387;48.772;9.186;2023-05-10T01:52:36;1.90;;;0.67;;
809;SDS011;387;48.772;9.186;2023-05-10T01:55:07;0.93;;;0.70;;
809;SDS011;387;48.772;9.186;2023-05-10T01:57:37;0.83;;;0.70;;
809;SDS011;387;48.772;9.186;2023-05-10T02:00:04;1.00;;;0.60;;
809;SDS011;387;48.772;9.186;2023-05-10T02:02:35;1.20;;;0.80;;
809;SDS011;387;48.772;9.186;2023-05-10T02:05:03;1.40;;;0.70;;
809;SDS011;387;48.772;9.186;2023-05-10T02:07:31;3.70;;;0.70;;
809;SDS011;387;48.772;9.186;2023-05-10T02:10:01;1.00;;;0.80;;
809;SDS011;387;48.772;9.186;2023-05-10T02:12:29;4.17;;;0.73;;
809;SDS011;387;48.772;9.186;2023-05-10T02:14:56;0.93;;;0.60;;
809;SDS011;387;48.772;9.186;2023-05-10T02:17:24;1.70;;;0.70;;
809;SDS011;387;48.772;9.186;2023-05-10T02:19:50;0.90;;;0.80;;
809;SDS011;387;48.772;9.186;2023-05-10T02:22:18;1.10;;;0.80;;
809;SDS011;387;48.772;9.186;2023-05-10T02:24:44;1.93;;;0.70;;
809;SDS011;387;48.772;9.186;2023-05-10T02:27:11;1.20;;;1.00;;
809;SDS011;387;48.772;9.186;2023-05-10T02:29:39;0.87;;;0.60;;
809;SDS011;387;48.772;9.186;2023-05-10T02:32:05;1.00;;;0.70;;
809;SDS011;387;48.772;9.186;2023-05-10T02:34:31;1.10;;;0.70;;
809;SDS011;387;48.772;9.186;2023-05-10T02:36:57;1.00;;;0.70;;
809;SDS011;387;48.772;9.186;2023-05-10T02:39:24;0.80;;;0.70;;
809;SDS011;387;48.772;9.186;2023-05-10T02:41:53;1.00;;;0.80;;
809;SDS011;387;48.772;9.186;2023-05-10T02:44:20;1.30;;;0.80;;
809;SDS011;387;48.772;9.186;2023-05-10T02:46:48;0.70;;;0.60;;
809;SDS011;387;48.772;9.186;2023-05-10T02:49:14;0.80;;;0.70;;
809;SDS011;387;48.772;9.186;2023-05-10T02:51:41;1.43;;;0.70;;
809;SDS011;387;48.772;9.186;2023-05-10T02:54:13;1.40;;;0.87;;
809;SDS011;387;48.772;9.186;2023-05-10T02:56:47;0.90;;;0.63;;
809;SDS011;387;48.772;9.186;2023-05-10T02:59:15;1.30;;;0.77;;
809;SDS011;387;48.772;9.186;2023-05-10T03:01:41;1.17;;;0.73;;
809;SDS011;387;48.772;9.186;2023-05-10T03:04:07;1.17;;;0.73;;
809;SDS011;387;48.772;9.186;2023-05-10T03:06:32;0.70;;;0.67;;
809;SDS011;387;48.772;9.186;2023-05-10T03:08:58;1.33;;;0.80;;
809;SDS011;387;48.772;9.186;2023-05-10T03:16:56;1.37;;;0.93;;
809;SDS011;387;48.772;9.186;2023-05-10T03:19:32;1.87;;;0.90;;
809;SDS011;387;48.772;9.186;2023-05-10T03:22:08;1.20;;;1.00;;
809;SDS011;387;48.772;9.186;2023-05-10T03:24:36;5.70;;;1.23;;
809;SDS011;387;48.772;9.186;2023-05-10T03:27:04;3.03;;;0.90;;
809;SDS011;387;48.772;9.186;2023-05-10T03:29:31;1.10;;;0.80;;
809;SDS011;387;48.772;9.186;2023-05-10T03:31:58;1.53;;;0.90;;
809;SDS011;387;48.772;9.186;2023-05-10T03:34:24;1.20;;;1.13;;
809;SDS011;387;48.772;9.186;2023-05-10T03:36:50;0.97;;;0.80;;
809;SDS011;387;48.772;9.186;2023-05-10T03:39:16;3.03;;;1.20;;
809;SDS011;387;48.772;9.186;2023-05-10T03:41:42;1.83;;;1.00;;
809;SDS011;387;48.772;9.186;2023-05-10T03:44:07;1.87;;;1.37;;
809;SDS011;387;48.772;9.186;2023-05-10T03:46:33;1.83;;;1.07;;
809;SDS011;387;48.772;9.186;2023-05-10T03:48:58;2.60;;;1.20;;
809;SDS011;387;48.772;9.186;2023-05-10T03:51:24;2.07;;;1.37;;
809;SDS011;387;48.772;9.186;2023-05-10T03:53:53;1.60;;;1.30;;
809;SDS011;387;48.772;9.186;2023-05-10T03:56:19;1.80;;;1.10;;
809;SDS011;387;48.772;9.186;2023-05-10T03:58:45;1.90;;;1.40;;
809;SDS011;387;48.772;9.186;2023-05-10T04:01:11;1.30;;;1.07;;
809;SDS011;387;48.772;9.186;2023-05-10T04:03:37;1.97;;;1.40;;
809;SDS011;387;48.772;9.186;2023-05-10T04:06:03;1.80;;;1.30;;
809;SDS011;387;48.772;9.186;2023-05-10T04:08:29;2.00;;;1.30;;
809;SDS011;387;48.772;9.186;2023-05-10T04:11:04;1.57;;;1.10;;
809;SDS011;387;48.772;9.186;2023-05-10T04:13:33;2.90;;;1.70;;
809;SDS011;387;48.772;9.186;2023-05-10T04:15:59;5.73;;;1.47;;
809;SDS011;387;48.772;9.186;2023-05-10T04:18:25;2.90;;;1.43;;
809;SDS011;387;48.772;9.186;2023-05-10T04:20:51;3.00;;;1.47;;
809;SDS011;387;48.772;9.186;2023-05-10T04:23:16;2.37;;;1.77;;
809;SDS011;387;48.772;9.186;2023-05-10T04:25:42;2.87;;;1.37;;
809;SDS011;387;48.772;9.186;2023-05-10T04:28:08;2.50;;;1.37;;
809;SDS011;387;48.772;9.186;2023-05-10T04:30:34;2.00;;;1.30;;
809;SDS011;387;48.772;9.186;2023-05-10T04:33:00;2.03;;;1.50;;
809;SDS011;387;48.772;9.186;2023-05-10T04:35:26;3.53;;;1.67;;
809;SDS011;387;48.772;9.186;2023-05-10T04:37:53;2.50;;;1.50;;
809;SDS011;387;48.772;9.186;2023-05-10T04:40:19;2.23;;;1.70;;
809;SDS011;387;48.772;9.186;2023-05-10T04:42:45;1.83;;;1.30;;
809;SDS011;387;48.772;9.186;2023-05-10T04:45:10;1.90;;;1.30;;
809;SDS011;387;48.772;9.186;2023-05-10T04:47:36;3.00;;;1.67;;
809;SDS011;387;48.772;9.186;2023-05-10T04:50:02;3.97;;;1.77;;
809;SDS011;387;48.772;9.186;2023-05-10T04:52:28;1.80;;;1.30;;
809;SDS011;387;48.772;9.186;2023-05-10T04:54:54;1.43;;;1.30;;
809;SDS011;387;48.772;9.186;2023-05-10T04:57:20;2.63;;;1.40;;
809;SDS011;387;48.772;9.186;2023-05-10T04:59:46;2.03;;;1.40;;
809;SDS011;387;48.772;9.186;2023-05-10T05:02:11;2.50;;;1.50;;
809;SDS011;387;48.772;9.186;2023-05-10T05:04:37;2.60;;;1.20;;
809;SDS011;387;48.772;9.186;2023-05-10T05:07:03;1.67;;;1.40;;
809;SDS011;387;48.772;9.186;2023-05-10T05:09:28;2.20;;;1.60;;
809;SDS011;387;48.772;9.186;2023-05-10T05:11:54;2.40;;;1.30;;
809;SDS011;387;48.772;9.186;2023-05-10T05:14:19;2.70;;;1.80;;
809;SDS011;387;48.772;9.186;2023-05-10T05:16:50;1.43;;;1.20;;
809;SDS011;387;48.772;9.186;2023-05-10T05:19:16;1.77;;;1.53;;
809;SDS011;387;48.772;9.186;2023-05-10T05:21:41;2.00;;;1.43;;
809;SDS011;387;48.772;9.186;2023-05-10T05:24:07;3.10;;;1.73;;
809;SDS011;387;48.772;9.186;2023-05-10T05:26:33;3.37;;;1.43;;
809;SDS011;387;48.772;9.186;2023-05-10T05:28:59;2.90;;;1.30;;
809;SDS011;387;48.772;9.186;2023-05-10T05:31:24;3.10;;;1.37;;
809;SDS011;387;48.772;9.186;2023-05-10T05:33:50;1.83;;;1.30;;
809;SDS011;387;48.772;9.186;2023-05-10T05:36:16;4.60;;;2.00;;
809;SDS011;387;48.772;9.186;2023-05-10T05:38:41;1.77;;;1.40;;
809;SDS011;387;48.772;9.186;2023-05-10T05:41:07;3.10;;;1.50;;
809;SDS011;387;48.772;9.186;2023-05-10T05:43:33;2.60;;;1.73;;
809;SDS011;387;48.772;9.186;2023-05-10T05:45:59;2.50;;;1.60;;
809;SDS011;387;48.772;9.186;2023-05-10T05:48:26;1.90;;;1.40;;
809;SDS011;387;48.772;9.186;2023-05-10T05:50:55;3.80;;;1.77;;
809;SDS011;387;48.772;9.186;2023-05-10T05:53:24;3.80;;;1.90;;
809;SDS011;387;48.772;9.186;2023-05-10T05:55:56;2.70;;;1.57;;
809;SDS011;387;48.772;9.186;2023-05-10T05:58:23;2.23;;;1.57;;
809;SDS011;387;48.772;9.186;2023-05-10T06:00:52;3.60;;;1.80;;
809;SDS011;387;48.772;9.186;2023-05-10T06:03:18;2.83;;;2.23;;
809;SDS011;387;48.772;9.186;2023-05-10T06:05:44;2.50;;;1.47;;
809;SDS011;387;48.772;9.186;2023-05-10T06:08:10;1.80;;;1.57;;
809;SDS011;387;48.772;9.186;2023-05-10T06:10:36;2.00;;;1.37;;
809;SDS011;387;48.772;9.186;2023-05-10T06:13:02;2.53;;;1.70;;
809;SDS011;387;48.772;9.186;2023-05-10T06:15:27;2.33;;;1.73;;
809;SDS011;387;48.772;9.186;2023-05-10T06:17:53;3.73;;;1.77;;
809;SDS011;387;48.772;9.186;2023-05-10T06:20:18;3.70;;;1.67;;
809;SDS011;387;48.772;9.186;2023-05-10T06:22:44;2.83;;;1.90;;
809;SDS011;387;48.772;9.186;2023-05-10T06:25:10;2.40;;;1.87;;
809;SDS011;387;48.772;9.186;2023-05-10T06:27:36;2.67;;;1.87;;
809;SDS011;387;48.772;9.186;2023-05-10T06:30:02;3.03;;;2.23;;
809;SDS011;387;48.772;9.186;2023-05-10T06:32:28;3.40;;;2.17;;
809;SDS011;387;48.772;9.186;2023-05-10T06:34:53;4.53;;;2.00;;
809;SDS011;387;48.772;9.186;2023-05-10T06:37:19;3.50;;;2.03;;
809;SDS011;387;48.772;9.186;2023-05-10T06:39:45;3.90;;;2.20;;
809;SDS011;387;48.772;9.186;2023-05-10T06:42:10;6.83;;;2.27;;
809;SDS011;387;48.772;9.186;2023-05-10T06:44:36;6.23;;;1.80;;
809;SDS011;387;48.772;9.186;2023-05-10T06:47:02;4.63;;;1.93;;
809;SDS011;387;48.772;9.186;2023-05-10T06:49:35;3.60;;;1.83;;
809;SDS011;387;48.772;9.186;2023-05-10T06:52:03;6.50;;;2.60;;
809;SDS011;387;48.772;9.186;2023-05-10T06:54:29;2.37;;;1.90;;
809;SDS011;387;48.772;9.186;2023-05-10T06:56:54;3.57;;;2.10;;
809;SDS011;387;48.772;9.186;2023-05-10T06:59:20;4.20;;;2.40;;
809;SDS011;387;48.772;9.186;2023-05-10T07:01:46;3.97;;;2.17;;
809;SDS011;387;48.772;9.186;2023-05-10T07:04:12;3.87;;;2.00;;
809;SDS011;387;48.772;9.186;2023-05-10T07:06:38;3.40;;;2.13;;
809;SDS011;387;48.772;9.186;2023-05-10T07:09:04;4.27;;;2.60;;
809;SDS011;387;48.772;9.186;2023-05-10T07:11:29;3.33;;;2.60;;
809;SDS011;387;48.772;9.186;2023-05-10T07:13:55;3.83;;;2.10;;
809;SDS011;387;48.772;9.186;2023-05-10T07:16:25;8.80;;;2.23;;
809;SDS011;387;48.772;9.186;2023-05-10T07:18:51;6.03;;;2.47;;
809;SDS011;387;48.772;9.186;2023-05-10T07:21:18;2.53;;;1.87;;
809;SDS011;387;48.772;9.186;2023-05-10T07:23:43;5.30;;;2.20;;
809;SDS011;387;48.772;9.186;2023-05-10T07:26:09;4.30;;;1.90;;
809;SDS011;387;48.772;9.186;2023-05-10T07:28:35;2.90;;;1.80;;
809;SDS011;387;48.772;9.186;2023-05-10T07:31:02;2.63;;;1.90;;
809;SDS011;387;48.772;9.186;2023-05-10T07:33:28;3.03;;;2.10;;
809;SDS011;387;48.772;9.186;2023-05-10T07:35:57;5.37;;;1.93;;
809;SDS011;387;48.772;9.186;2023-05-10T07:38:23;5.03;;;2.00;;
809;SDS011;387;48.772;9.186;2023-05-10T07:40:49;3.10;;;1.83;;
809;SDS011;387;48.772;9.186;2023-05-10T07:43:14;3.73;;;2.23;;
809;SDS011;387;48.772;9.186;2023-05-10T07:45:40;3.43;;;2.20;;
809;SDS011;387;48.772;9.186;2023-05-10T07:48:05;4.10;;;2.27;;
809;SDS011;387;48.772;9.186;2023-05-10T07:50:31;3.43;;;2.00;;
809;SDS011;387;48.772;9.186;2023-05-10T07:52:57;2.33;;;1.60;;
809;SDS011;387;48.772;9.186;2023-05-10T07:55:23;2.10;;;1.50;;
809;SDS011;387;48.772;9.186;2023-05-10T07:57:48;2.47;;;1.50;;
809;SDS011;387;48.772;9.186;2023-05-10T08:00:16;4.57;;;2.20;;
809;SDS011;387;48.772;9.186;2023-05-10T08:02:43;3.13;;;1.83;;
809;SDS011;387;48.772;9.186;2023-05-10T08:05:09;4.60;;;2.00;;
809;SDS011;387;48.772;9.186;2023-05-10T08:07:35;16.00;;;5.70;;
809;SDS011;387;48.772;9.186;2023-05-10T08:10:01;3.17;;;1.60;;
809;SDS011;387;48.772;9.186;2023-05-10T08:12:27;2.93;;;2.20;;
809;SDS011;387;48.772;9.186;2023-05-10T08:14:53;2.50;;;1.47;;
809;SDS011;387;48.772;9.186;2023-05-10T08:17:18;3.27;;;1.50;;
809;SDS011;387;48.772;9.186;2023-05-10T08:19:44;7.93;;;2.60;;
809;SDS011;387;48.772;9.186;2023-05-10T08:22:10;1.97;;;1.50;;
809;SDS011;387;48.772;9.186;2023-05-10T08:24:35;4.83;;;3.10;;
809;SDS011;387;48.772;9.186;2023-05-10T08:27:04;3.20;;;1.20;;
809;SDS011;387;48.772;9.186;2023-05-10T08:29:30;7.53;;;2.63;;
809;SDS011;387;48.772;9.186;2023-05-10T08:31:56;2.40;;;1.53;;
809;SDS011;387;48.772;9.186;2023-05-10T08:34:22;5.40;;;2.00;;
809;SDS011;387;48.772;9.186;2023-05-10T08:36:48;6.17;;;2.37;;
809;SDS011;387;48.772;9.186;2023-05-10T08:39:13;3.20;;;1.63;;
809;SDS011;387;48.772;9.186;2023-05-10T08:41:39;2.70;;;1.30;;
809;SDS011;387;48.772;9.186;2023-05-10T08:44:08;2.20;;;1.60;;
809;SDS011;387;48.772;9.186;2023-05-10T08:46:34;8.47;;;1.40;;
809;SDS011;387;48.772;9.186;2023-05-10T08:49:04;2.90;;;1.30;;
809;SDS011;387;48.772;9.186;2023-05-10T08:51:34;2.40;;;1.50;;
809;SDS011;387;48.772;9.186;2023-05-10T08:54:02;3.97;;;1.33;;
809;SDS011;387;48.772;9.186;2023-05-10T08:56:29;2.33;;;1.57;;
809;SDS011;387;48.772;9.186;2023-05-10T08:58:55;1.70;;;0.97;;
809;SDS011;387;48.772;9.186;2023-05-10T09:01:21;1.93;;;1.00;;
809;SDS011;387;48.772;9.186;2023-05-10T09:03:47;1.50;;;1.10;;
809;SDS011;387;48.772;9.186;2023-05-10T09:06:13;16.63;;;3.20;;
809;SDS011;387;48.772;9.186;2023-05-10T09:08:40;1.77;;;1.13;;
809;SDS011;387;48.772;9.186;2023-05-10T09:11:07;3.00;;;1.30;;
809;SDS011;387;48.772;9.186;2023-05-10T09:13:34;4.10;;;1.00;;
809;SDS011;387;48.772;9.186;2023-05-10T09:16:00;1.17;;;1.00;;
809;SDS011;387;48.772;9.186;2023-05-10T09:18:27;2.57;;;1.20;;
809;SDS011;387;48.772;9.186;2023-05-10T09:20:53;2.90;;;1.50;;
809;SDS011;387;48.772;9.186;2023-05-10T09:23:19;6.80;;;2.20;;
809;SDS011;387;48.772;9.186;2023-05-10T09:25:45;2.77;;;1.20;;
809;SDS011;387;48.772;9.186;2023-05-10T09:28:11;3.40;;;2.10;;
809;SDS011;387;48.772;9.186;2023-05-10T09:30:37;6.50;;;2.67;;
809;SDS011;387;48.772;9.186;2023-05-10T09:33:03;5.70;;;3.00;;
809;SDS011;387;48.772;9.186;2023-05-10T09:35:29;4.43;;;1.50;;
809;SDS011;387;48.772;9.186;2023-05-10T09:37:57;1.20;;;1.13;;
809;SDS011;387;48.772;9.186;2023-05-10T09:40:26;3.93;;;2.00;;
809;SDS011;387;48.772;9.186;2023-05-10T09:43:03;1.53;;;1.20;;
809;SDS011;387;48.772;9.186;2023-05-10T09:45:33;3.20;;;2.17;;
809;SDS011;387;48.772;9.186;2023-05-10T09:48:00;2.60;;;1.57;;
809;SDS011;387;48.772;9.186;2023-05-10T09:50:27;2.37;;;1.13;;
809;SDS011;387;48.772;9.186;2023-05-10T09:53:01;1.73;;;1.10;;
809;SDS011;387;48.772;9.186;2023-05-10T09:58:02;2.93;;;1.23;;
809;SDS011;387;48.772;9.186;2023-05-10T10:00:33;4.80;;;1.40;;
809;SDS011;387;48.772;9.186;2023-05-10T10:03:03;2.17;;;1.03;;
809;SDS011;387;48.772;9.186;2023-05-10T10:05:29;5.30;;;1.60;;
809;SDS011;387;48.772;9.186;2023-05-10T10:07:59;8.73;;;1.80;;
809;SDS011;387;48.772;9.186;2023-05-10T10:10:29;1.40;;;0.90;;
809;SDS011;387;48.772;9.186;2023-05-10T10:12:57;7.73;;;1.20;;
809;SDS011;387;48.772;9.186;2023-05-10T10:15:23;2.50;;;1.60;;
809;SDS011;387;48.772;9.186;2023-05-10T10:17:50;1.73;;;0.90;;
809;SDS011;387;48.772;9.186;2023-05-10T10:20:17;6.97;;;1.87;;
809;SDS011;387;48.772;9.186;2023-05-10T10:22:44;10.90;;;1.60;;
809;SDS011;387;48.772;9.186;2023-05-10T10:25:11;4.20;;;1.53;;
809;SDS011;387;48.772;9.186;2023-05-10T10:30:21;3.10;;;1.50;;
809;SDS011;387;48.772;9.186;2023-05-10T10:35:52;4.20;;;1.63;;
809;SDS011;387;48.772;9.186;2023-05-10T10:38:19;2.13;;;1.00;;
809;SDS011;387;48.772;9.186;2023-05-10T10:40:46;1.40;;;1.10;;
809;SDS011;387;48.772;9.186;2023-05-10T10:43:25;2.50;;;1.40;;
809;SDS011;387;48.772;9.186;2023-05-10T10:46:14;2.83;;;1.37;;
809;SDS011;387;48.772;9.186;2023-05-10T10:48:46;1.90;;;1.10;;
809;SDS011;387;48.772;9.186;2023-05-10T10:51:16;3.83;;;1.30;;
809;SDS011;387;48.772;9.186;2023-05-10T10:53:42;2.43;;;1.37;;
809;SDS011;387;48.772;9.186;2023-05-10T10:56:09;5.27;;;1.53;;
809;SDS011;387;48.772;9.186;2023-05-10T10:58:37;4.23;;;1.70;;
809;SDS011;387;48.772;9.186;2023-05-10T11:01:21;1.63;;;0.90;;
809;SDS011;387;48.772;9.186;2023-05-10T11:06:28;5.23;;;1.10;;
809;SDS011;387;48.772;9.186;2023-05-10T11:08:56;4.53;;;1.40;;
809;SDS011;387;48.772;9.186;2023-05-10T11:11:22;3.00;;;1.73;;
809;SDS011;387;48.772;9.186;2023-05-10T11:13:48;3.87;;;1.10;;
809;SDS011;387;48.772;9.186;2023-05-10T11:16:20;2.30;;;1.27;;
809;SDS011;387;48.772;9.186;2023-05-10T11:18:53;4.10;;;1.37;;
809;SDS011;387;48.772;9.186;2023-05-10T11:21:29;1.50;;;1.10;;
809;SDS011;387;48.772;9.186;2023-05-10T11:23:56;1.20;;;0.97;;
809;SDS011;387;48.772;9.186;2023-05-10T11:26:23;2.80;;;1.03;;
809;SDS011;387;48.772;9.186;2023-05-10T11:28:51;6.60;;;1.03;;
809;SDS011;387;48.772;9.186;2023-05-10T11:31:20;2.00;;;1.00;;
809;SDS011;387;48.772;9.186;2023-05-10T11:33:50;2.60;;;1.10;;
809;SDS011;387;48.772;9.186;2023-05-10T11:36:23;2.37;;;1.10;;
809;SDS011;387;48.772;9.186;2023-05-10T11:38:54;2.30;;;1.20;;
809;SDS011;387;48.772;9.186;2023-05-10T11:41:21;1.53;;;1.00;;
809;SDS011;387;48.772;9.186;2023-05-10T11:43:52;1.80;;;1.30;;
809;SDS011;387;48.772;9.186;2023-05-10T11:46:19;0.90;;;0.90;;
809;SDS011;387;48.772;9.186;2023-05-10T11:48:47;4.63;;;1.20;;
809;SDS011;387;48.772;9.186;2023-05-10T11:51:19;1.90;;;1.17;;
809;SDS011;387;48.772;9.186;2023-05-10T11:53:49;1.63;;;1.10;;
809;SDS011;387;48.772;9.186;2023-05-10T11:56:18;2.43;;;1.40;;
809;SDS011;387;48.772;9.186;2023-05-10T11:58:47;4.53;;;1.50;;
809;SDS011;387;48.772;9.186;2023-05-10T12:01:21;2.60;;;1.30;;
809;SDS011;387;48.772;9.186;2023-05-10T12:03:47;13.10;;;1.93;;
809;SDS011;387;48.772;9.186;2023-05-10T12:06:18;2.40;;;1.67;;
809;SDS011;387;48.772;9.186;2023-05-10T12:08:45;2.60;;;1.23;;
809;SDS011;387;48.772;9.186;2023-05-10T12:11:18;1.63;;;1.47;;
809;SDS011;387;48.772;9.186;2023-05-10T12:13:46;2.67;;;1.87;;
809;SDS011;387;48.772;9.186;2023-05-10T12:16:17;3.23;;;1.47;;
809;SDS011;387;48.772;9.186;2023-05-10T12:18:44;2.43;;;1.50;;
809;SDS011;387;48.772;9.186;2023-05-10T12:21:13;2.57;;;1.40;;
809;SDS011;387;48.772;9.186;2023-05-10T12:23:40;1.80;;;1.27;;
809;SDS011;387;48.772;9.186;2023-05-10T12:26:07;3.20;;;1.70;;
809;SDS011;387;48.772;9.186;2023-05-10T12:28:35;2.47;;;1.50;;
809;SDS011;387;48.772;9.186;2023-05-10T12:31:01;2.10;;;1.50;;
809;SDS011;387;48.772;9.186;2023-05-10T12:33:27;2.37;;;1.30;;
809;SDS011;387;48.772;9.186;2023-05-10T12:36:00;2.20;;;1.43;;
809;SDS011;387;48.772;9.186;2023-05-10T12:38:31;2.53;;;1.30;;
809;SDS011;387;48.772;9.186;2023-05-10T12:40:59;2.13;;;1.40;;
809;SDS011;387;48.772;9.186;2023-05-10T12:43:25;2.40;;;1.73;;
809;SDS011;387;48.772;9.186;2023-05-10T12:45:51;5.07;;;2.57;;
809;SDS011;387;48.772;9.186;2023-05-10T12:48:18;5.43;;;2.30;;
809;SDS011;387;48.772;9.186;2023-05-10T12:50:43;5.23;;;2.50;;
809;SDS011;387;48.772;9.186;2023-05-10T12:53:12;2.50;;;1.63;;
809;SDS011;387;48.772;9.186;2023-05-10T12:55:40;5.80;;;1.70;;
809;SDS011;387;48.772;9.186;2023-05-10T12:58:09;4.37;;;2.00;;
809;SDS011;387;48.772;9.186;2023-05-10T13:00:35;2.10;;;1.40;;
809;SDS011;387;48.772;9.186;2023-05-10T13:03:02;5.17;;;1.70;;
809;SDS011;387;48.772;9.186;2023-05-10T13:05:30;2.43;;;1.77;;
809;SDS011;387;48.772;9.186;2023-05-10T13:07:56;2.53;;;1.57;;
809;SDS011;387;48.772;9.186;2023-05-10T13:10:22;3.37;;;2.03;;
809;SDS011;387;48.772;9.186;2023-05-10T13:12:48;2.57;;;1.53;;
809;SDS011;387;48.772;9.186;2023-05-10T13:15:14;4.20;;;1.93;;
809;SDS011;387;48.772;9.186;2023-05-10T13:17:40;8.33;;;1.70;;
809;SDS011;387;48.772;9.186;2023-05-10T13:20:07;1.97;;;1.63;;
809;SDS011;387;48.772;9.186;2023-05-10T13:22:34;3.83;;;1.43;;
809;SDS011;387;48.772;9.186;2023-05-10T13:25:00;3.60;;;1.50;;
809;SDS011;387;48.772;9.186;2023-05-10T13:27:26;4.43;;;1.70;;
809;SDS011;387;48.772;9.186;2023-05-10T13:29:52;4.20;;;1.60;;
809;SDS011;387;48.772;9.186;2023-05-10T13:32:18;3.83;;;1.30;;
809;SDS011;387;48.772;9.186;2023-05-10T13:34:44;4.73;;;1.87;;
809;SDS011;387;48.772;9.186;2023-05-10T13:37:09;6.10;;;1.90;;
809;SDS011;387;48.772;9.186;2023-05-10T13:39:35;2.57;;;1.50;;
809;SDS011;387;48.772;9.186;2023-05-10T13:42:02;2.20;;;1.43;;
809;SDS011;387;48.772;9.186;2023-05-10T13:44:28;2.70;;;1.70;;
809;SDS011;387;48.772;9.186;2023-05-10T13:46:54;3.00;;;1.67;;
809;SDS011;387;48.772;9.186;2023-05-10T13:49:20;1.67;;;1.47;;
809;SDS011;387;48.772;9.186;2023-05-10T13:51:47;1.80;;;1.47;;
809;SDS011;387;48.772;9.186;2023-05-10T13:54:12;2.77;;;2.00;;
809;SDS011;387;48.772;9.186;2023-05-10T13:56:38;5.00;;;1.93;;
809;SDS011;387;48.772;9.186;2023-05-10T13:59:05;2.43;;;1.83;;
809;SDS011;387;48.772;9.186;2023-05-10T14:01:33;2.63;;;1.40;;
809;SDS011;387;48.772;9.186;2023-05-10T14:03:59;3.03;;;1.70;;
809;SDS011;387;48.772;9.186;2023-05-10T14:06:28;4.97;;;1.60;;
809;SDS011;387;48.772;9.186;2023-05-10T14:09:00;4.80;;;1.90;;
809;SDS011;387;48.772;9.186;2023-05-10T14:11:26;1.50;;;1.40;;
809;SDS011;387;48.772;9.186;2023-05-10T14:13:54;3.20;;;1.60;;
809;SDS011;387;48.772;9.186;2023-05-10T14:19:25;2.37;;;1.40;;
809;SDS011;387;48.772;9.186;2023-05-10T14:25:21;2.53;;;1.60;;
809;SDS011;387;48.772;9.186;2023-05-10T14:27:46;2.90;;;1.30;;
809;SDS011;387;48.772;9.186;2023-05-10T14:30:12;3.03;;;1.43;;
809;SDS011;387;48.772;9.186;2023-05-10T14:32:38;2.20;;;1.30;;
809;SDS011;387;48.772;9.186;2023-05-10T14:35:04;5.87;;;1.57;;
809;SDS011;387;48.772;9.186;2023-05-10T14:37:30;2.00;;;1.47;;
809;SDS011;387;48.772;9.186;2023-05-10T14:39:57;4.50;;;1.37;;
809;SDS011;387;48.772;9.186;2023-05-10T14:42:23;3.10;;;1.90;;
809;SDS011;387;48.772;9.186;2023-05-10T14:44:48;3.23;;;1.90;;
809;SDS011;387;48.772;9.186;2023-05-10T14:47:14;6.20;;;1.87;;
809;SDS011;387;48.772;9.186;2023-05-10T14:49:39;2.30;;;1.63;;
809;SDS011;387;48.772;9.186;2023-05-10T14:52:06;1.90;;;1.53;;
809;SDS011;387;48.772;9.186;2023-05-10T14:54:31;4.70;;;1.60;;
809;SDS011;387;48.772;9.186;2023-05-10T14:57:00;2.50;;;1.37;;
809;SDS011;387;48.772;9.186;2023-05-10T14:59:25;2.43;;;1.50;;
809;SDS011;387;48.772;9.186;2023-05-10T15:01:51;6.83;;;2.00;;
809;SDS011;387;48.772;9.186;2023-05-10T15:04:17;3.80;;;1.80;;
809;SDS011;387;48.772;9.186;2023-05-10T15:06:43;2.80;;;1.63;;
809;SDS011;387;48.772;9.186;2023-05-10T15:09:09;1.60;;;1.43;;
809;SDS011;387;48.772;9.186;2023-05-10T15:11:34;3.77;;;1.80;;
809;SDS011;387;48.772;9.186;2023-05-10T15:14:00;4.83;;;1.90;;
809;SDS011;387;48.772;9.186;2023-05-10T15:16:26;4.80;;;2.03;;
809;SDS011;387;48.772;9.186;2023-05-10T15:18:52;2.00;;;1.20;;
809;SDS011;387;48.772;9.186;2023-05-10T15:21:18;3.87;;;1.27;;
809;SDS011;387;48.772;9.186;2023-05-10T15:23:43;3.40;;;1.70;;
809;SDS011;387;48.772;9.186;2023-05-10T15:26:09;4.07;;;2.00;;
809;SDS011;387;48.772;9.186;2023-05-10T15:28:34;2.60;;;1.60;;
809;SDS011;387;48.772;9.186;2023-05-10T15:31:00;3.60;;;1.33;;
809;SDS011;387;48.772;9.186;2023-05-10T15:33:26;2.20;;;1.40;;
809;SDS011;387;48.772;9.186;2023-05-10T15:35:52;3.00;;;1.73;;
809;SDS011;387;48.772;9.186;2023-05-10T15:38:18;3.37;;;1.77;;
809;SDS011;387;48.772;9.186;2023-05-10T15:40:44;2.30;;;1.47;;
809;SDS011;387;48.772;9.186;2023-05-10T15:43:10;4.73;;;1.83;;
809;SDS011;387;48.772;9.186;2023-05-10T15:45:36;1.50;;;1.30;;
809;SDS011;387;48.772;9.186;2023-05-10T15:48:01;1.70;;;1.40;;
809;SDS011;387;48.772;9.186;2023-05-10T15:50:27;5.30;;;1.50;;
809;SDS011;387;48.772;9.186;2023-05-10T15:52:53;4.03;;;1.77;;
809;SDS011;387;48.772;9.186;2023-05-10T15:55:18;2.07;;;1.40;;
809;SDS011;387;48.772;9.186;2023-05-10T15:57:47;2.90;;;1.37;;
809;SDS011;387;48.772;9.186;2023-05-10T16:00:13;2.67;;;1.80;;
809;SDS011;387;48.772;9.186;2023-05-10T16:02:39;3.00;;;2.03;;
809;SDS011;387;48.772;9.186;2023-05-10T16:05:05;7.17;;;2.50;;
809;SDS011;387;48.772;9.186;2023-05-10T16:07:31;6.03;;;2.90;;
809;SDS011;387;48.772;9.186;2023-05-10T16:09:57;10.47;;;4.30;;
809;SDS011;387;48.772;9.186;2023-05-10T16:12:23;6.93;;;3.00;;
809;SDS011;387;48.772;9.186;2023-05-10T16:14:48;3.40;;;2.47;;
809;SDS011;387;48.772;9.186;2023-05-10T16:17:14;3.00;;;1.80;;